aviador You're here:

GMMB Decoded Metar

BEN SLIMANE in MOROCCO
Report Time2017-09-24 22:00:00
UTC Time2017-09-24 23:01:40
Flight Rules unknown UNKNOWN
Wind020° at 02 kt
W.Decomp.*RWY 32: 0.9 kt HW 1.8 kt RCW
W.Rank020° ranks 7
Current wind is below 020° avg. (6.2)
VisibilityN/A
Phenomena:N/A
Clouds:N/A
CeilingNone
Temp18°C (ISA +4)
Dew Point18°C (100% RH)
QNH1022 hPa
Density Alt1,096 ft
Elevation626 ft
Report Wrong Elevation
Raw Report
METAR GMMB 242200Z AUTO 02002KT //// ////// 18/18 Q1022 NOSIG=

Extra information for GMMB:More info

Metar Taf Metar & Taf Last 4 Metars F.Rules Stats Wind Profile Meteogram Temp Stats Airport Information Weather charts Add Link Nearby VenuesMetar ALERT Operation Metar Decoded Social comments